createdAt,value
2023-04-09T00:00:18.153Z,97065.28
2023-04-09T00:02:46.265Z,97077.13
2023-04-09T00:05:22.601Z,97051.16
2023-04-09T00:07:53.470Z,97069.75
2023-04-09T00:10:24.545Z,97029.78
2023-04-09T00:12:58.015Z,97071.13
2023-04-09T00:15:31.648Z,97066.41
2023-04-09T00:18:01.660Z,97069.75
2023-04-09T00:20:38.961Z,97060.78
2023-04-09T00:23:12.948Z,97066.03
2023-04-09T00:25:41.299Z,97062.16
2023-04-09T00:28:09.332Z,97058.69
2023-04-09T00:30:39.288Z,97064.31
2023-04-09T00:33:07.484Z,97059.66
2023-04-09T00:35:39.074Z,97052.41
2023-04-09T00:38:16.852Z,97062.03
2023-04-09T00:40:47.411Z,97061.25
2023-04-09T00:43:18.049Z,97060.13
2023-04-09T00:45:47.934Z,97057.41
2023-04-09T00:48:17.359Z,97022.97
2023-04-09T00:50:45.568Z,97023.22
2023-04-09T00:53:27.828Z,97057.72
2023-04-09T00:55:57.411Z,97051.16
2023-04-09T00:58:25.312Z,97048.78
2023-04-09T01:00:55.494Z,97055.34
2023-04-09T01:03:27.485Z,97058.19
2023-04-09T01:06:04.730Z,97055.53
2023-04-09T01:08:45.865Z,97040.66
2023-04-09T01:11:22.888Z,97051.19
2023-04-09T01:14:02.696Z,97043.63
2023-04-09T01:16:34.058Z,97042.34
2023-04-09T01:19:08.263Z,97050.28
2023-04-09T01:21:37.854Z,97036.41
2023-04-09T01:24:17.868Z,97043.50
2023-04-09T01:26:57.258Z,97051.19
2023-04-09T01:29:27.900Z,96953.16
2023-04-09T01:31:56.679Z,97053.72
2023-04-09T01:34:24.879Z,97047.75
2023-04-09T01:36:55.183Z,97006.56
2023-04-09T01:39:23.125Z,97045.69
2023-04-09T01:41:52.013Z,97057.41
2023-04-09T01:44:20.745Z,97058.94
2023-04-09T01:46:51.073Z,97057.22
2023-04-09T01:49:23.596Z,97060.38
2023-04-09T01:51:51.939Z,97058.88
2023-04-09T01:54:25.781Z,97057.25
2023-04-09T01:56:56.643Z,97055.56
2023-04-09T01:59:33.525Z,97051.38
2023-04-09T02:02:10.396Z,97096.84
2023-04-09T02:04:42.603Z,97063.34
2023-04-09T02:07:13.723Z,97041.47
2023-04-09T02:09:42.632Z,97025.53
2023-04-09T02:12:14.465Z,97047.72
2023-04-09T02:14:43.835Z,97049.41
2023-04-09T02:17:15.716Z,97041.94
2023-04-09T02:19:46.973Z,97050.00
2023-04-09T02:22:16.362Z,97045.00
2023-04-09T02:24:47.419Z,97048.88
2023-04-09T02:27:15.315Z,97046.25
2023-04-09T02:29:44.088Z,97013.13
2023-04-09T02:32:16.369Z,97038.44
2023-04-09T02:34:44.401Z,97037.16
2023-04-09T02:37:12.347Z,97034.69
2023-04-09T02:39:40.459Z,97024.75
2023-04-09T02:42:08.857Z,97053.00
2023-04-09T02:44:41.631Z,97037.34
2023-04-09T02:47:11.526Z,97038.00
2023-04-09T02:49:41.382Z,97036.34
2023-04-09T02:52:13.601Z,97033.09
2023-04-09T02:54:43.804Z,97038.78
2023-04-09T02:57:11.786Z,97039.00
2023-04-09T02:59:40.813Z,97025.06
2023-04-09T03:02:14.929Z,97028.25
2023-04-09T03:04:44.413Z,97031.03
2023-04-09T03:07:20.411Z,97036.75
2023-04-09T03:09:50.106Z,97031.50
2023-04-09T03:12:18.137Z,97032.28
2023-04-09T03:14:47.079Z,97027.78
2023-04-09T03:17:16.368Z,97027.16
2023-04-09T03:19:46.189Z,97022.88
2023-04-09T03:22:14.223Z,97013.09
2023-04-09T03:24:44.626Z,97035.25
2023-04-09T03:27:13.877Z,97024.00
2023-04-09T03:29:42.092Z,97002.31
2023-04-09T03:32:11.452Z,97018.94
2023-04-09T03:34:39.412Z,97016.38
2023-04-09T03:37:13.720Z,97035.53
2023-04-09T03:39:42.758Z,97024.53
2023-04-09T03:42:11.011Z,97026.78
2023-04-09T03:44:40.882Z,97025.72
2023-04-09T03:47:09.161Z,97024.59
2023-04-09T03:49:37.302Z,97019.56
2023-04-09T03:52:05.204Z,96912.88
2023-04-09T03:54:34.515Z,97022.44
2023-04-09T03:57:06.271Z,97014.72
2023-04-09T03:59:34.436Z,97006.09
2023-04-09T04:02:05.115Z,97023.53
2023-04-09T04:04:33.179Z,97027.28
2023-04-09T04:07:01.575Z,97019.75
2023-04-09T04:09:29.596Z,97029.88
2023-04-09T04:11:59.325Z,97029.63
2023-04-09T04:14:33.304Z,96977.09
2023-04-09T04:17:04.074Z,97021.84
2023-04-09T04:19:35.012Z,96962.25
2023-04-09T04:22:11.072Z,97014.19
2023-04-09T04:24:42.597Z,97052.22
2023-04-09T04:27:14.908Z,97015.94
2023-04-09T04:29:48.198Z,97046.47
2023-04-09T04:32:16.280Z,97043.25
2023-04-09T04:34:44.142Z,97000.91
2023-04-09T04:37:17.352Z,97024.25
2023-04-09T04:39:45.212Z,97034.63
2023-04-09T04:42:15.778Z,97034.44
2023-04-09T04:44:43.708Z,96977.16
2023-04-09T04:47:13.771Z,97037.97
2023-04-09T04:49:47.870Z,97034.03
2023-04-09T04:52:17.710Z,97035.47
2023-04-09T04:54:50.450Z,97040.69
2023-04-09T04:57:21.460Z,97013.06
2023-04-09T04:59:49.578Z,97038.13
2023-04-09T05:02:20.021Z,97043.78
2023-04-09T05:04:48.026Z,97046.97
2023-04-09T05:07:16.065Z,96768.03
2023-04-09T05:09:44.651Z,97054.59
2023-04-09T05:12:12.676Z,97038.81
2023-04-09T05:14:42.087Z,96989.66
2023-04-09T05:17:31.094Z,97047.50
2023-04-09T05:20:01.182Z,97049.88
2023-04-09T05:22:31.568Z,97042.25
2023-04-09T05:25:03.706Z,96985.31
2023-04-09T05:27:31.696Z,97054.19
2023-04-09T05:30:01.388Z,97024.34
2023-04-09T05:32:32.135Z,97030.28
2023-04-09T05:35:00.436Z,97018.00
2023-04-09T05:37:31.353Z,97063.34
2023-04-09T05:40:00.614Z,97058.97
2023-04-09T05:42:28.512Z,97056.63
2023-04-09T05:44:56.685Z,96993.22
2023-04-09T05:47:26.433Z,97048.44
2023-04-09T05:49:59.526Z,97011.97
2023-04-09T05:52:28.597Z,97046.28
2023-04-09T05:54:56.615Z,97045.47
2023-04-09T05:57:24.372Z,96759.47
2023-04-09T05:59:52.257Z,97051.84
2023-04-09T06:02:20.343Z,96987.53
2023-04-09T06:04:53.835Z,97051.81
2023-04-09T06:07:21.961Z,97034.28
2023-04-09T06:09:49.893Z,97030.63
2023-04-09T06:12:20.667Z,97059.59
2023-04-09T06:14:49.468Z,97062.53
2023-04-09T06:17:34.052Z,97042.53
2023-04-09T06:20:06.718Z,97041.06
2023-04-09T06:22:35.173Z,97069.13
2023-04-09T06:25:04.346Z,97073.38
2023-04-09T06:27:32.746Z,97070.78
2023-04-09T06:30:03.719Z,97063.59
2023-04-09T06:32:40.328Z,97057.66
2023-04-09T06:35:19.488Z,97072.97
2023-04-09T06:37:47.576Z,97073.84
2023-04-09T06:40:25.102Z,97069.44
2023-04-09T06:42:53.154Z,97073.66
2023-04-09T06:45:23.905Z,97056.16
2023-04-09T06:47:52.512Z,97058.63
2023-04-09T06:50:23.866Z,97080.91
2023-04-09T06:52:53.197Z,97081.53
2023-04-09T06:55:23.974Z,97085.78
2023-04-09T06:57:53.942Z,97052.63
2023-04-09T07:00:24.004Z,97089.28
2023-04-09T07:02:53.523Z,97064.63
2023-04-09T07:05:23.120Z,97093.72
2023-04-09T07:07:52.092Z,97094.91
2023-04-09T07:10:20.256Z,97089.78
2023-04-09T07:12:48.049Z,97096.66
2023-04-09T07:15:17.588Z,97083.84
2023-04-09T07:17:45.594Z,97083.53
2023-04-09T07:20:15.621Z,97043.81
2023-04-09T07:22:48.058Z,96973.19
2023-04-09T07:25:18.106Z,97084.56
2023-04-09T07:27:51.283Z,97075.25
2023-04-09T07:30:24.415Z,97041.44
2023-04-09T07:32:52.761Z,97043.47
2023-04-09T07:35:21.016Z,97081.13
2023-04-09T07:37:52.952Z,97051.44
2023-04-09T07:40:37.054Z,97083.53
2023-04-09T07:43:07.049Z,97078.09
2023-04-09T07:45:36.549Z,97093.53
2023-04-09T07:48:10.375Z,97095.41
2023-04-09T07:50:41.746Z,97087.94
2023-04-09T07:53:12.577Z,97087.47
2023-04-09T07:55:41.293Z,97093.47
2023-04-09T07:58:09.262Z,97077.72
2023-04-09T08:00:37.229Z,97083.78
2023-04-09T08:03:05.886Z,97079.22
2023-04-09T08:05:38.568Z,97055.09
2023-04-09T08:08:06.874Z,97087.75
2023-04-09T08:10:36.231Z,97079.94
2023-04-09T08:13:11.913Z,97011.47
2023-04-09T08:15:42.264Z,97084.56
2023-04-09T08:18:10.266Z,97090.53
2023-04-09T08:20:45.519Z,97087.88
2023-04-09T08:23:13.623Z,97080.97
2023-04-09T08:25:43.995Z,97013.53
2023-04-09T08:28:12.131Z,97084.41
2023-04-09T08:30:43.428Z,97101.03
2023-04-09T08:33:11.597Z,97107.59
2023-04-09T08:35:41.445Z,97058.69
2023-04-09T08:38:12.461Z,97101.97
2023-04-09T08:40:40.474Z,97091.94
2023-04-09T08:43:10.897Z,97079.59
2023-04-09T08:45:42.367Z,97050.06
2023-04-09T08:48:15.033Z,97080.50
2023-04-09T08:50:48.575Z,97093.94
2023-04-09T08:53:19.164Z,97060.56
2023-04-09T08:55:47.838Z,97060.22
2023-04-09T08:58:22.275Z,97087.72
2023-04-09T09:00:55.016Z,97059.88
2023-04-09T09:03:25.632Z,97097.59
2023-04-09T09:05:54.209Z,97065.97
2023-04-09T09:08:27.530Z,97090.56
2023-04-09T09:10:57.413Z,97096.91
2023-04-09T09:13:27.737Z,97027.56
2023-04-09T09:16:17.467Z,97060.88
2023-04-09T09:18:46.480Z,97088.63
2023-04-09T09:21:15.855Z,97081.75
2023-04-09T09:23:48.416Z,97089.78
2023-04-09T09:29:05.943Z,96805.66
2023-04-09T09:31:51.354Z,97090.91
2023-04-09T09:34:20.107Z,97088.16
2023-04-09T09:36:53.269Z,97088.25
2023-04-09T09:39:22.209Z,97087.38
2023-04-09T09:42:10.763Z,97085.09
2023-04-09T09:44:43.927Z,97092.50
2023-04-09T09:47:13.983Z,97086.53
2023-04-09T09:49:47.450Z,97092.56
2023-04-09T09:52:15.560Z,97093.38
2023-04-09T09:54:49.604Z,97093.06
2023-04-09T09:57:22.266Z,97077.06
2023-04-09T09:59:56.299Z,97086.31
2023-04-09T10:02:27.253Z,97039.81
2023-04-09T10:04:57.913Z,97088.88
2023-04-09T10:07:29.162Z,97087.38
2023-04-09T10:09:57.947Z,97055.16
2023-04-09T10:12:29.505Z,97030.22
2023-04-09T10:15:00.996Z,97073.28
2023-04-09T10:17:36.787Z,97075.00
2023-04-09T10:20:18.625Z,97074.59
2023-04-09T10:22:50.315Z,97073.44
2023-04-09T10:25:21.101Z,97081.75
2023-04-09T10:28:00.979Z,97026.59
2023-04-09T10:30:37.337Z,97067.88
2023-04-09T10:33:15.514Z,97071.75
2023-04-09T10:35:49.002Z,97065.22
2023-04-09T10:38:16.973Z,97058.16
2023-04-09T10:40:49.476Z,97060.41
2023-04-09T10:43:21.132Z,97055.91
2023-04-09T10:45:53.790Z,97064.72
2023-04-09T10:48:39.794Z,97056.94
2023-04-09T10:51:07.951Z,97024.22
2023-04-09T10:53:35.892Z,97036.13
2023-04-09T10:56:16.659Z,97044.50
2023-04-09T10:58:47.603Z,97049.50
2023-04-09T11:01:24.829Z,97037.31
2023-04-09T11:04:10.821Z,97035.03
2023-04-09T11:06:41.116Z,97008.22
2023-04-09T11:09:12.163Z,97039.91
2023-04-09T11:11:40.802Z,97036.84
2023-04-09T11:14:11.295Z,97037.63
2023-04-09T11:16:40.904Z,97041.53
2023-04-09T11:19:12.104Z,97020.94
2023-04-09T11:21:46.311Z,97012.72
2023-04-09T11:24:17.176Z,97037.53
2023-04-09T11:26:46.964Z,97031.97
2023-04-09T11:29:17.232Z,97011.19
2023-04-09T11:31:54.861Z,97033.84
2023-04-09T11:34:22.875Z,97032.78
2023-04-09T11:36:55.962Z,97033.06
2023-04-09T11:39:43.815Z,96699.44
2023-04-09T11:42:17.054Z,97026.69
2023-04-09T11:44:46.857Z,96960.97
2023-04-09T11:47:17.266Z,97029.03
2023-04-09T11:49:46.847Z,97029.28
2023-04-09T11:52:16.407Z,97033.84
2023-04-09T11:54:44.907Z,96979.84
2023-04-09T11:57:13.302Z,97042.34
2023-04-09T11:59:41.298Z,97032.50
2023-04-09T12:02:10.207Z,97031.72
2023-04-09T12:04:42.706Z,97033.63
2023-04-09T12:07:11.167Z,97035.50
2023-04-09T12:09:49.019Z,97034.47
2023-04-09T12:12:22.584Z,97021.16
2023-04-09T12:14:52.306Z,97026.22
2023-04-09T12:17:22.290Z,97029.69
2023-04-09T12:19:54.693Z,97023.53
2023-04-09T12:22:25.002Z,97022.38
2023-04-09T12:24:55.498Z,97005.56
2023-04-09T12:27:24.584Z,97030.97
2023-04-09T12:29:54.884Z,97031.50
2023-04-09T12:32:22.824Z,96963.06
2023-04-09T12:34:52.151Z,97014.06
2023-04-09T12:37:20.309Z,97022.25
2023-04-09T12:39:49.317Z,97018.88
2023-04-09T12:42:18.733Z,97019.09
2023-04-09T12:44:46.496Z,97015.31
2023-04-09T12:47:14.388Z,97012.28
2023-04-09T12:49:50.115Z,96975.59
2023-04-09T12:52:22.698Z,96999.50
2023-04-09T12:54:59.901Z,97002.38
2023-04-09T12:57:31.363Z,96997.75
2023-04-09T12:59:59.415Z,96991.56
2023-04-09T13:02:30.434Z,96998.38
2023-04-09T13:04:59.133Z,97007.50
2023-04-09T13:07:31.594Z,96961.25
2023-04-09T13:09:59.770Z,96993.94
2023-04-09T13:12:28.121Z,96997.53
2023-04-09T13:14:59.454Z,96997.91
2023-04-09T13:17:27.319Z,97008.56
2023-04-09T13:19:55.222Z,96999.50
2023-04-09T13:22:28.669Z,96997.88
2023-04-09T13:24:57.926Z,96995.78
2023-04-09T13:27:27.153Z,96945.72
2023-04-09T13:29:59.328Z,96988.88
2023-04-09T13:32:30.169Z,96999.69
2023-04-09T13:35:00.176Z,96991.03
2023-04-09T13:37:29.379Z,96918.63
2023-04-09T13:40:01.702Z,96986.09
2023-04-09T13:42:31.611Z,96981.75
2023-04-09T13:45:02.318Z,96995.75
2023-04-09T13:47:30.737Z,96979.03
2023-04-09T13:50:01.901Z,96958.97
2023-04-09T13:52:30.564Z,96969.13
2023-04-09T13:55:03.793Z,96923.44
2023-04-09T13:57:36.632Z,96960.06
2023-04-09T14:00:05.918Z,96948.94
2023-04-09T14:02:36.092Z,96963.56
2023-04-09T14:05:04.834Z,96913.66
2023-04-09T14:07:33.983Z,96950.31
2023-04-09T14:10:03.490Z,96779.19
2023-04-09T14:12:31.614Z,96945.88
2023-04-09T14:15:02.516Z,96946.97
2023-04-09T14:17:32.300Z,96880.16
2023-04-09T14:20:04.009Z,96936.31
2023-04-09T14:22:33.336Z,96929.44
2023-04-09T14:25:11.668Z,96874.19
2023-04-09T14:27:41.218Z,96945.34
2023-04-09T14:30:13.961Z,96937.97
2023-04-09T14:32:54.417Z,96940.13
2023-04-09T14:35:24.770Z,96925.63
2023-04-09T14:37:55.165Z,96934.13
2023-04-09T14:40:26.051Z,96927.03
2023-04-09T14:42:58.006Z,96934.34
2023-04-09T14:45:31.133Z,96931.34
2023-04-09T14:47:59.154Z,96933.03
2023-04-09T14:50:27.288Z,96922.28
2023-04-09T14:52:55.428Z,96922.56
2023-04-09T14:55:28.308Z,96925.50
2023-04-09T14:58:00.596Z,96911.69
2023-04-09T15:00:29.391Z,96908.13
2023-04-09T15:03:05.471Z,96910.38
2023-04-09T15:05:36.597Z,96899.69
2023-04-09T15:08:07.267Z,96909.03
2023-04-09T15:10:37.445Z,96913.38
2023-04-09T15:13:10.312Z,96895.19
2023-04-09T15:15:41.683Z,96913.47
2023-04-09T15:18:11.948Z,96903.59
2023-04-09T15:20:40.501Z,96909.00
2023-04-09T15:23:09.478Z,96905.63
2023-04-09T15:25:40.690Z,96906.06
2023-04-09T15:28:09.986Z,96905.78
2023-04-09T15:30:41.813Z,96886.69
2023-04-09T15:33:09.638Z,96900.66
2023-04-09T15:35:39.801Z,96904.66
2023-04-09T15:38:33.752Z,96904.31
2023-04-09T15:41:07.124Z,96911.41
2023-04-09T15:43:36.200Z,96882.31
2023-04-09T15:46:10.795Z,96911.19
2023-04-09T15:48:42.061Z,96905.50
2023-04-09T15:51:12.829Z,96890.53
2023-04-09T15:53:48.217Z,96917.38
2023-04-09T15:56:17.765Z,96908.72
2023-04-09T15:58:47.921Z,96907.22
2023-04-09T16:01:19.469Z,96906.31
2023-04-09T16:03:51.990Z,96906.09
2023-04-09T16:06:21.216Z,96906.34
2023-04-09T16:08:49.076Z,96898.53
2023-04-09T16:11:20.198Z,96908.19
2023-04-09T16:13:49.310Z,96902.94
2023-04-09T16:16:20.830Z,96901.03
2023-04-09T16:18:48.848Z,96908.41
2023-04-09T16:21:21.852Z,96889.13
2023-04-09T16:23:52.404Z,96601.72
2023-04-09T16:26:23.602Z,96902.19
2023-04-09T16:28:56.035Z,96906.84
2023-04-09T16:31:24.153Z,96906.66
2023-04-09T16:33:55.463Z,96891.41
2023-04-09T16:36:33.666Z,96909.53
2023-04-09T16:39:04.417Z,96867.44
2023-04-09T16:41:37.071Z,96921.50
2023-04-09T16:44:13.416Z,96918.72
2023-04-09T16:46:41.436Z,96895.84
2023-04-09T16:49:10.150Z,96887.78
2023-04-09T16:51:41.460Z,96830.69
2023-04-09T16:54:09.438Z,96923.13
2023-04-09T16:56:37.226Z,96917.28
2023-04-09T16:59:08.009Z,96913.66
2023-04-09T17:01:40.080Z,96914.66
2023-04-09T17:04:08.453Z,96922.00
2023-04-09T17:06:36.528Z,96856.25
2023-04-09T17:09:07.604Z,96925.16
2023-04-09T17:11:38.341Z,96923.72
2023-04-09T17:14:08.083Z,96916.81
2023-04-09T17:16:36.325Z,96893.16
2023-04-09T17:19:04.313Z,96900.06
2023-04-09T17:21:32.766Z,96839.75
2023-04-09T17:24:02.271Z,96919.75
2023-04-09T17:26:34.072Z,96917.09
2023-04-09T17:29:03.455Z,96911.75
2023-04-09T17:31:34.374Z,96909.41
2023-04-09T17:34:02.258Z,96863.91
2023-04-09T17:36:31.576Z,96883.34
2023-04-09T17:39:02.794Z,96924.53
2023-04-09T17:41:31.725Z,96924.00
2023-04-09T17:44:00.319Z,96928.50
2023-04-09T17:46:28.910Z,96888.91
2023-04-09T17:49:00.049Z,96899.31
2023-04-09T17:51:30.657Z,96940.47
2023-04-09T17:53:58.500Z,96933.81
2023-04-09T17:56:31.525Z,96931.44
2023-04-09T17:58:59.348Z,96948.44
2023-04-09T18:01:31.294Z,96854.13
2023-04-09T18:04:01.637Z,96947.38
2023-04-09T18:06:32.743Z,96903.25
2023-04-09T18:09:02.354Z,96954.31
2023-04-09T18:11:30.216Z,96951.06
2023-04-09T18:13:58.467Z,96957.44
2023-04-09T18:16:29.088Z,96958.00
2023-04-09T18:18:56.992Z,96952.97
2023-04-09T18:21:27.580Z,96968.66
2023-04-09T18:23:56.106Z,96969.50
2023-04-09T18:26:26.155Z,96953.25
2023-04-09T18:29:02.331Z,96977.72
2023-04-09T18:31:30.220Z,96992.06
2023-04-09T18:34:05.060Z,96992.88
2023-04-09T18:36:38.275Z,96979.59
2023-04-09T18:39:06.585Z,96959.63
2023-04-09T18:41:40.720Z,96970.81
2023-04-09T18:44:08.584Z,96966.53
2023-04-09T18:46:43.862Z,96985.94
2023-04-09T18:49:11.935Z,96988.63
2023-04-09T18:51:41.599Z,96976.38
2023-04-09T18:54:14.583Z,96996.28
2023-04-09T18:56:49.686Z,96985.56
2023-04-09T18:59:19.606Z,96981.53
2023-04-09T19:01:47.704Z,96958.59
2023-04-09T19:04:18.239Z,96966.56
2023-04-09T19:06:49.552Z,96998.16
2023-04-09T19:09:17.714Z,97004.56
2023-04-09T19:11:45.692Z,97007.16
2023-04-09T19:14:22.213Z,97014.81
2023-04-09T19:16:50.016Z,97012.94
2023-04-09T19:19:18.084Z,97006.75
2023-04-09T19:21:48.936Z,97002.94
2023-04-09T19:24:16.981Z,97016.44
2023-04-09T19:26:49.008Z,96990.81
2023-04-09T19:29:19.475Z,97021.81
2023-04-09T19:31:47.544Z,97026.75
2023-04-09T19:34:18.332Z,97021.81
2023-04-09T19:36:47.630Z,97024.50
2023-04-09T19:39:23.409Z,97024.94
2023-04-09T19:41:55.439Z,97019.91
2023-04-09T19:44:24.112Z,97035.19
2023-04-09T19:46:52.655Z,97037.81
2023-04-09T19:49:25.590Z,97039.94
2023-04-09T19:51:57.826Z,97037.97
2023-04-09T19:54:26.077Z,97020.72
2023-04-09T19:57:01.763Z,97030.53
2023-04-09T19:59:29.818Z,96933.84
2023-04-09T20:02:00.263Z,97025.81
2023-04-09T20:04:31.056Z,97027.75
2023-04-09T20:07:00.639Z,97039.03
2023-04-09T20:09:29.211Z,97043.41
2023-04-09T20:11:58.410Z,97040.72
2023-04-09T20:14:29.504Z,97032.78
2023-04-09T20:16:58.607Z,97031.81
2023-04-09T20:19:33.605Z,97032.75
2023-04-09T20:22:03.560Z,97028.88
2023-04-09T20:24:32.322Z,97025.25
2023-04-09T20:27:03.143Z,97029.91
2023-04-09T20:29:45.205Z,97027.88
2023-04-09T20:32:16.249Z,97029.88
2023-04-09T20:34:47.128Z,97000.50
2023-04-09T20:37:19.138Z,97044.41
2023-04-09T20:39:47.175Z,97044.44
2023-04-09T20:42:15.801Z,97050.84
2023-04-09T20:44:44.906Z,97037.34
2023-04-09T20:47:15.483Z,97043.88
2023-04-09T20:49:59.940Z,97041.78
2023-04-09T20:52:35.592Z,97019.25
2023-04-09T20:55:07.496Z,96973.41
2023-04-09T20:57:38.266Z,97051.44
2023-04-09T21:00:07.416Z,96992.25
2023-04-09T21:02:42.128Z,97030.84
2023-04-09T21:05:22.508Z,97028.28
2023-04-09T21:07:53.427Z,96963.59
2023-04-09T21:10:24.408Z,97014.56
2023-04-09T21:12:54.823Z,97023.19
2023-04-09T21:15:22.730Z,96783.84
2023-04-09T21:17:53.215Z,97016.19
2023-04-09T21:20:22.291Z,97021.03
2023-04-09T21:22:50.755Z,96869.56
2023-04-09T21:25:20.620Z,97008.50
2023-04-09T21:27:48.588Z,97005.72
2023-04-09T21:30:17.223Z,97014.06
2023-04-09T21:32:46.266Z,97014.19
2023-04-09T21:35:16.564Z,97008.84
2023-04-09T21:37:54.881Z,96794.59
2023-04-09T21:40:24.467Z,97005.38
2023-04-09T21:42:59.723Z,96923.91
2023-04-09T21:45:32.736Z,96971.91
2023-04-09T21:48:08.261Z,97016.16
2023-04-09T21:53:26.426Z,97009.16
2023-04-09T21:56:01.798Z,97017.34
2023-04-09T21:58:39.884Z,97006.09
2023-04-09T22:01:26.446Z,97002.84
2023-04-09T22:04:02.277Z,97018.50
2023-04-09T22:06:33.356Z,97016.56
2023-04-09T22:09:04.700Z,97055.34
2023-04-09T22:11:36.393Z,97028.69
2023-04-09T22:14:06.650Z,97028.50
2023-04-09T22:16:35.333Z,97029.53
2023-04-09T22:19:06.934Z,97024.44
2023-04-09T22:21:35.033Z,97021.91
2023-04-09T22:24:03.113Z,97003.97
2023-04-09T22:26:33.512Z,96952.13
2023-04-09T22:29:05.722Z,96980.22
2023-04-09T22:31:37.806Z,97013.31
2023-04-09T22:34:20.179Z,97008.63
2023-04-09T22:36:49.860Z,97003.47
2023-04-09T22:39:22.582Z,97012.66
2023-04-09T22:41:53.515Z,96999.72
2023-04-09T22:44:23.579Z,96998.22
2023-04-09T22:46:55.288Z,96970.34
2023-04-09T22:49:26.749Z,96996.59
2023-04-09T22:51:54.807Z,97001.06
2023-04-09T22:54:26.121Z,96993.25
2023-04-09T22:56:54.097Z,96999.66
2023-04-09T22:59:30.319Z,96991.84
2023-04-09T23:02:02.186Z,96988.66
2023-04-09T23:04:30.872Z,96981.44
2023-04-09T23:07:02.574Z,96998.03
2023-04-09T23:09:32.466Z,96995.53
2023-04-09T23:12:17.175Z,96971.44
2023-04-09T23:14:53.717Z,96995.34
2023-04-09T23:17:30.540Z,97001.47
2023-04-09T23:19:59.554Z,97004.75
2023-04-09T23:22:27.682Z,96998.50
2023-04-09T23:24:55.708Z,97012.09
2023-04-09T23:27:28.791Z,97008.69
2023-04-09T23:30:16.812Z,97008.22
2023-04-09T23:32:45.421Z,96964.47
2023-04-09T23:35:13.582Z,97013.13
2023-04-09T23:37:42.523Z,97012.69
2023-04-09T23:40:22.674Z,97007.47
2023-04-09T23:42:51.032Z,97007.13
2023-04-09T23:45:26.291Z,97017.56
2023-04-09T23:47:57.547Z,97008.94
2023-04-09T23:50:25.561Z,97017.53
2023-04-09T23:52:54.461Z,97006.06
2023-04-09T23:55:27.214Z,97015.13
2023-04-09T23:57:57.922Z,97004.00
